sensor_id;sensor_type;location;lat;lon;timestamp;temperature;humidity
41557;DHT22;27720;51.992;5.890;2023-04-15T00:00:05;12.00;71.70
41557;DHT22;27720;51.992;5.890;2023-04-15T00:02:40;12.10;71.80
41557;DHT22;27720;51.992;5.890;2023-04-15T00:05:13;12.00;72.00
41557;DHT22;27720;51.992;5.890;2023-04-15T00:07:41;12.00;72.20
41557;DHT22;27720;51.992;5.890;2023-04-15T00:10:13;12.00;72.20
41557;DHT22;27720;51.992;5.890;2023-04-15T00:12:39;11.90;72.30
41557;DHT22;27720;51.992;5.890;2023-04-15T00:15:08;11.90;72.40
41557;DHT22;27720;51.992;5.890;2023-04-15T00:17:34;11.90;72.40
41557;DHT22;27720;51.992;5.890;2023-04-15T00:20:00;11.90;72.70
41557;DHT22;27720;51.992;5.890;2023-04-15T00:22:27;11.90;72.80
41557;DHT22;27720;51.992;5.890;2023-04-15T00:24:53;11.90;73.00
41557;DHT22;27720;51.992;5.890;2023-04-15T00:27:19;11.80;73.10
41557;DHT22;27720;51.992;5.890;2023-04-15T00:29:48;11.80;73.20
41557;DHT22;27720;51.992;5.890;2023-04-15T00:32:19;11.80;73.40
41557;DHT22;27720;51.992;5.890;2023-04-15T00:34:45;11.80;73.60
41557;DHT22;27720;51.992;5.890;2023-04-15T00:37:12;11.80;73.70
41557;DHT22;27720;51.992;5.890;2023-04-15T00:39:42;11.70;73.70
41557;DHT22;27720;51.992;5.890;2023-04-15T00:42:09;11.70;73.80
41557;DHT22;27720;51.992;5.890;2023-04-15T00:44:35;11.70;74.00
41557;DHT22;27720;51.992;5.890;2023-04-15T00:47:02;11.70;74.20
41557;DHT22;27720;51.992;5.890;2023-04-15T00:49:29;11.60;74.30
41557;DHT22;27720;51.992;5.890;2023-04-15T00:51:55;11.60;74.40
41557;DHT22;27720;51.992;5.890;2023-04-15T00:54:23;11.60;74.50
41557;DHT22;27720;51.992;5.890;2023-04-15T00:56:49;11.50;74.60
41557;DHT22;27720;51.992;5.890;2023-04-15T00:59:18;11.50;74.70
41557;DHT22;27720;51.992;5.890;2023-04-15T01:01:48;11.50;74.80
41557;DHT22;27720;51.992;5.890;2023-04-15T01:04:15;11.50;74.90
41557;DHT22;27720;51.992;5.890;2023-04-15T01:06:41;11.50;75.00
41557;DHT22;27720;51.992;5.890;2023-04-15T01:09:09;11.50;75.20
41557;DHT22;27720;51.992;5.890;2023-04-15T01:11:38;11.50;75.30
41557;DHT22;27720;51.992;5.890;2023-04-15T01:14:08;11.50;75.50
41557;DHT22;27720;51.992;5.890;2023-04-15T01:16:40;11.50;75.80
41557;DHT22;27720;51.992;5.890;2023-04-15T01:19:09;11.40;75.80
41557;DHT22;27720;51.992;5.890;2023-04-15T01:21:45;11.40;76.00
41557;DHT22;27720;51.992;5.890;2023-04-15T01:24:12;11.30;76.20
41557;DHT22;27720;51.992;5.890;2023-04-15T01:26:47;11.30;76.20
41557;DHT22;27720;51.992;5.890;2023-04-15T01:29:15;11.30;76.40
41557;DHT22;27720;51.992;5.890;2023-04-15T01:31:54;11.30;76.70
41557;DHT22;27720;51.992;5.890;2023-04-15T01:34:46;11.30;76.60
41557;DHT22;27720;51.992;5.890;2023-04-15T01:37:52;11.30;76.70
41557;DHT22;27720;51.992;5.890;2023-04-15T01:41:01;11.20;77.00
41557;DHT22;27720;51.992;5.890;2023-04-15T01:43:51;11.20;77.00
41557;DHT22;27720;51.992;5.890;2023-04-15T01:46:32;11.10;77.30
41557;DHT22;27720;51.992;5.890;2023-04-15T01:49:35;11.10;77.30
41557;DHT22;27720;51.992;5.890;2023-04-15T01:52:01;11.10;77.60
41557;DHT22;27720;51.992;5.890;2023-04-15T01:54:28;11.00;77.90
41557;DHT22;27720;51.992;5.890;2023-04-15T01:56:55;11.00;77.90
41557;DHT22;27720;51.992;5.890;2023-04-15T02:03:33;11.00;78.10
41557;DHT22;27720;51.992;5.890;2023-04-15T02:05:59;10.90;78.70
41557;DHT22;27720;51.992;5.890;2023-04-15T02:08:40;10.90;78.80
41557;DHT22;27720;51.992;5.890;2023-04-15T02:13:40;10.90;78.80
41557;DHT22;27720;51.992;5.890;2023-04-15T02:16:17;11.00;78.80
41557;DHT22;27720;51.992;5.890;2023-04-15T02:18:46;11.00;78.70
41557;DHT22;27720;51.992;5.890;2023-04-15T02:21:17;11.00;78.80
41557;DHT22;27720;51.992;5.890;2023-04-15T02:23:45;11.00;78.80
41557;DHT22;27720;51.992;5.890;2023-04-15T02:26:13;11.00;78.80
41557;DHT22;27720;51.992;5.890;2023-04-15T02:28:39;11.00;78.80
41557;DHT22;27720;51.992;5.890;2023-04-15T02:31:06;11.10;79.60
41557;DHT22;27720;51.992;5.890;2023-04-15T02:33:32;11.00;78.90
41557;DHT22;27720;51.992;5.890;2023-04-15T02:35:59;11.10;79.10
41557;DHT22;27720;51.992;5.890;2023-04-15T02:38:27;11.00;79.10
41557;DHT22;27720;51.992;5.890;2023-04-15T02:40:53;11.00;79.30
41557;DHT22;27720;51.992;5.890;2023-04-15T02:43:19;11.00;79.40
41557;DHT22;27720;51.992;5.890;2023-04-15T02:45:45;10.90;79.40
41557;DHT22;27720;51.992;5.890;2023-04-15T02:48:12;10.90;79.50
41557;DHT22;27720;51.992;5.890;2023-04-15T02:50:38;10.90;79.60
41557;DHT22;27720;51.992;5.890;2023-04-15T02:53:06;10.80;79.60
41557;DHT22;27720;51.992;5.890;2023-04-15T02:55:32;10.80;79.70
41557;DHT22;27720;51.992;5.890;2023-04-15T02:57:58;10.70;79.80
41557;DHT22;27720;51.992;5.890;2023-04-15T03:00:25;10.70;79.90
41557;DHT22;27720;51.992;5.890;2023-04-15T03:03:01;10.70;80.00
41557;DHT22;27720;51.992;5.890;2023-04-15T03:06:42;10.70;80.10
41557;DHT22;27720;51.992;5.890;2023-04-15T03:09:45;10.60;80.10
41557;DHT22;27720;51.992;5.890;2023-04-15T03:12:22;10.50;80.50
41557;DHT22;27720;51.992;5.890;2023-04-15T03:14:57;10.50;80.60
41557;DHT22;27720;51.992;5.890;2023-04-15T03:17:35;10.40;80.80
41557;DHT22;27720;51.992;5.890;2023-04-15T03:20:06;10.40;80.80
41557;DHT22;27720;51.992;5.890;2023-04-15T03:22:46;10.40;81.00
41557;DHT22;27720;51.992;5.890;2023-04-15T03:25:49;10.30;81.00
41557;DHT22;27720;51.992;5.890;2023-04-15T03:29:23;10.30;81.20
41557;DHT22;27720;51.992;5.890;2023-04-15T03:33:11;10.30;81.30
41557;DHT22;27720;51.992;5.890;2023-04-15T03:39:17;10.10;81.70
41557;DHT22;27720;51.992;5.890;2023-04-15T03:41:55;10.10;82.00
41557;DHT22;27720;51.992;5.890;2023-04-15T03:45:06;10.20;82.10
41557;DHT22;27720;51.992;5.890;2023-04-15T03:51:13;10.00;82.40
41557;DHT22;27720;51.992;5.890;2023-04-15T03:54:22;10.00;82.50
41557;DHT22;27720;51.992;5.890;2023-04-15T03:57:13;10.00;82.50
41557;DHT22;27720;51.992;5.890;2023-04-15T04:00:15;9.90;82.90
41557;DHT22;27720;51.992;5.890;2023-04-15T04:03:32;10.00;83.00
41557;DHT22;27720;51.992;5.890;2023-04-15T04:07:05;9.90;83.00
41557;DHT22;27720;51.992;5.890;2023-04-15T04:09:59;9.90;83.10
41557;DHT22;27720;51.992;5.890;2023-04-15T04:12:36;9.90;83.40
41557;DHT22;27720;51.992;5.890;2023-04-15T04:15:45;9.80;83.60
41557;DHT22;27720;51.992;5.890;2023-04-15T04:18:14;9.80;83.70
41557;DHT22;27720;51.992;5.890;2023-04-15T04:20:42;9.70;83.80
41557;DHT22;27720;51.992;5.890;2023-04-15T04:23:08;9.80;83.90
41557;DHT22;27720;51.992;5.890;2023-04-15T04:25:47;9.80;83.90
41557;DHT22;27720;51.992;5.890;2023-04-15T04:28:19;9.80;84.00
41557;DHT22;27720;51.992;5.890;2023-04-15T04:30:48;9.70;84.00
41557;DHT22;27720;51.992;5.890;2023-04-15T04:33:23;9.70;84.20
41557;DHT22;27720;51.992;5.890;2023-04-15T04:36:13;9.70;84.30
41557;DHT22;27720;51.992;5.890;2023-04-15T04:39:08;9.70;84.50
41557;DHT22;27720;51.992;5.890;2023-04-15T04:42:09;9.60;84.70
41557;DHT22;27720;51.992;5.890;2023-04-15T04:44:42;9.50;85.10
41557;DHT22;27720;51.992;5.890;2023-04-15T04:47:16;9.40;85.20
41557;DHT22;27720;51.992;5.890;2023-04-15T04:50:09;9.40;85.30
41557;DHT22;27720;51.992;5.890;2023-04-15T04:52:48;9.40;85.30
41557;DHT22;27720;51.992;5.890;2023-04-15T04:55:26;9.30;85.80
41557;DHT22;27720;51.992;5.890;2023-04-15T05:01:13;9.30;86.00
41557;DHT22;27720;51.992;5.890;2023-04-15T05:03:42;9.20;86.40
41557;DHT22;27720;51.992;5.890;2023-04-15T05:06:12;9.20;86.60
41557;DHT22;27720;51.992;5.890;2023-04-15T05:08:40;9.20;86.80
41557;DHT22;27720;51.992;5.890;2023-04-15T05:13:55;9.20;87.40
41557;DHT22;27720;51.992;5.890;2023-04-15T05:17:28;9.20;87.40
41557;DHT22;27720;51.992;5.890;2023-04-15T05:23:21;9.10;87.90
41557;DHT22;27720;51.992;5.890;2023-04-15T05:25:52;9.10;87.60
41557;DHT22;27720;51.992;5.890;2023-04-15T05:28:21;9.20;87.80
41557;DHT22;27720;51.992;5.890;2023-04-15T05:30:55;9.10;88.40
41557;DHT22;27720;51.992;5.890;2023-04-15T05:33:26;9.10;88.40
41557;DHT22;27720;51.992;5.890;2023-04-15T05:35:52;9.10;88.70
41557;DHT22;27720;51.992;5.890;2023-04-15T06:11:09;9.50;90.70
41557;DHT22;27720;51.992;5.890;2023-04-15T06:13:35;9.60;90.90
41557;DHT22;27720;51.992;5.890;2023-04-15T06:16:01;9.70;91.00
41557;DHT22;27720;51.992;5.890;2023-04-15T06:18:37;9.70;91.00
41557;DHT22;27720;51.992;5.890;2023-04-15T06:21:08;9.80;91.00
41557;DHT22;27720;51.992;5.890;2023-04-15T06:24:16;9.90;91.00
41557;DHT22;27720;51.992;5.890;2023-04-15T06:27:50;9.90;91.00
41557;DHT22;27720;51.992;5.890;2023-04-15T06:30:37;9.90;91.10
41557;DHT22;27720;51.992;5.890;2023-04-15T06:33:15;10.00;91.20
41557;DHT22;27720;51.992;5.890;2023-04-15T06:39:36;10.10;91.50
41557;DHT22;27720;51.992;5.890;2023-04-15T06:43:19;10.10;91.50
41557;DHT22;27720;51.992;5.890;2023-04-15T06:46:10;10.10;91.40
41557;DHT22;27720;51.992;5.890;2023-04-15T06:49:37;10.10;91.50
41557;DHT22;27720;51.992;5.890;2023-04-15T06:52:30;10.20;91.40
41557;DHT22;27720;51.992;5.890;2023-04-15T06:55:24;10.20;91.40
41557;DHT22;27720;51.992;5.890;2023-04-15T07:40:59;10.60;91.30
41557;DHT22;27720;51.992;5.890;2023-04-15T07:49:19;10.80;91.20
41557;DHT22;27720;51.992;5.890;2023-04-15T07:58:03;10.90;91.10
41557;DHT22;27720;51.992;5.890;2023-04-15T08:07:20;11.10;90.90
41557;DHT22;27720;51.992;5.890;2023-04-15T08:29:50;11.80;89.90
41557;DHT22;27720;51.992;5.890;2023-04-15T08:32:16;11.80;89.80
41557;DHT22;27720;51.992;5.890;2023-04-15T08:34:51;11.80;89.50
41557;DHT22;27720;51.992;5.890;2023-04-15T08:37:28;12.00;89.10
41557;DHT22;27720;51.992;5.890;2023-04-15T08:39:56;12.00;88.70
41557;DHT22;27720;51.992;5.890;2023-04-15T08:47:58;12.10;87.70
41557;DHT22;27720;51.992;5.890;2023-04-15T08:53:10;12.20;87.00
41557;DHT22;27720;51.992;5.890;2023-04-15T08:55:44;12.20;87.00
41557;DHT22;27720;51.992;5.890;2023-04-15T08:58:35;12.30;86.80
41557;DHT22;27720;51.992;5.890;2023-04-15T09:01:12;12.40;86.50
41557;DHT22;27720;51.992;5.890;2023-04-15T09:03:48;12.40;86.20
41557;DHT22;27720;51.992;5.890;2023-04-15T09:06:32;12.40;86.00
41557;DHT22;27720;51.992;5.890;2023-04-15T09:09:17;12.50;86.00
41557;DHT22;27720;51.992;5.890;2023-04-15T09:12:20;12.50;85.70
41557;DHT22;27720;51.992;5.890;2023-04-15T09:14:47;12.60;85.30
41557;DHT22;27720;51.992;5.890;2023-04-15T09:17:46;12.60;85.50
41557;DHT22;27720;51.992;5.890;2023-04-15T09:20:17;12.60;85.20
41557;DHT22;27720;51.992;5.890;2023-04-15T09:22:51;12.70;85.10
41557;DHT22;27720;51.992;5.890;2023-04-15T09:25:44;12.70;84.90
41557;DHT22;27720;51.992;5.890;2023-04-15T09:28:49;12.80;85.00
41557;DHT22;27720;51.992;5.890;2023-04-15T09:31:38;13.00;84.70
41557;DHT22;27720;51.992;5.890;2023-04-15T09:34:12;13.10;84.30
41557;DHT22;27720;51.992;5.890;2023-04-15T09:39:11;13.20;84.40
41557;DHT22;27720;51.992;5.890;2023-04-15T09:42:06;13.30;84.20
41557;DHT22;27720;51.992;5.890;2023-04-15T09:44:32;13.60;83.90
41557;DHT22;27720;51.992;5.890;2023-04-15T09:47:00;13.70;83.30
41557;DHT22;27720;51.992;5.890;2023-04-15T09:49:28;13.80;83.20
41557;DHT22;27720;51.992;5.890;2023-04-15T09:52:17;13.90;82.80
41557;DHT22;27720;51.992;5.890;2023-04-15T09:54:54;13.90;82.00
41557;DHT22;27720;51.992;5.890;2023-04-15T09:57:32;13.90;82.20
41557;DHT22;27720;51.992;5.890;2023-04-15T10:00:09;13.90;81.70
41557;DHT22;27720;51.992;5.890;2023-04-15T10:02:36;13.90;81.70
41557;DHT22;27720;51.992;5.890;2023-04-15T10:05:08;14.00;81.50
41557;DHT22;27720;51.992;5.890;2023-04-15T10:08:08;14.20;81.50
41557;DHT22;27720;51.992;5.890;2023-04-15T10:10:44;14.20;80.90
41557;DHT22;27720;51.992;5.890;2023-04-15T10:13:19;14.30;80.30
41557;DHT22;27720;51.992;5.890;2023-04-15T10:16:14;14.40;79.70
41557;DHT22;27720;51.992;5.890;2023-04-15T10:18:44;14.70;79.30
41557;DHT22;27720;51.992;5.890;2023-04-15T10:21:11;14.80;79.10
41557;DHT22;27720;51.992;5.890;2023-04-15T10:23:48;14.90;78.60
41557;DHT22;27720;51.992;5.890;2023-04-15T10:26:29;15.00;78.50
41557;DHT22;27720;51.992;5.890;2023-04-15T10:29:21;15.20;78.20
41557;DHT22;27720;51.992;5.890;2023-04-15T10:32:17;15.40;76.80
41557;DHT22;27720;51.992;5.890;2023-04-15T10:35:10;15.60;76.40
41557;DHT22;27720;51.992;5.890;2023-04-15T10:37:39;15.70;76.70
41557;DHT22;27720;51.992;5.890;2023-04-15T10:40:29;15.80;75.80
41557;DHT22;27720;51.992;5.890;2023-04-15T10:43:04;15.90;74.90
41557;DHT22;27720;51.992;5.890;2023-04-15T10:45:35;15.90;75.20
41557;DHT22;27720;51.992;5.890;2023-04-15T10:48:04;15.90;75.30
41557;DHT22;27720;51.992;5.890;2023-04-15T10:50:34;15.80;75.20
41557;DHT22;27720;51.992;5.890;2023-04-15T10:53:02;15.70;74.60
41557;DHT22;27720;51.992;5.890;2023-04-15T10:55:43;15.70;74.60
41557;DHT22;27720;51.992;5.890;2023-04-15T10:58:11;15.80;74.40
41557;DHT22;27720;51.992;5.890;2023-04-15T11:00:41;15.80;73.60
41557;DHT22;27720;51.992;5.890;2023-04-15T11:03:41;15.90;73.40
41557;DHT22;27720;51.992;5.890;2023-04-15T11:06:10;16.10;73.70
41557;DHT22;27720;51.992;5.890;2023-04-15T11:08:57;16.10;73.50
41557;DHT22;27720;51.992;5.890;2023-04-15T11:12:06;16.10;73.30
41557;DHT22;27720;51.992;5.890;2023-04-15T11:14:45;16.00;73.40
41557;DHT22;27720;51.992;5.890;2023-04-15T11:17:25;16.00;72.40
41557;DHT22;27720;51.992;5.890;2023-04-15T11:19:51;16.10;72.60
41557;DHT22;27720;51.992;5.890;2023-04-15T11:22:20;16.20;72.00
41557;DHT22;27720;51.992;5.890;2023-04-15T11:25:02;16.40;71.80
41557;DHT22;27720;51.992;5.890;2023-04-15T11:27:31;16.40;71.20
41557;DHT22;27720;51.992;5.890;2023-04-15T11:30:01;16.40;70.30
41557;DHT22;27720;51.992;5.890;2023-04-15T11:33:15;16.50;70.10
41557;DHT22;27720;51.992;5.890;2023-04-15T11:35:41;16.50;70.00
41557;DHT22;27720;51.992;5.890;2023-04-15T11:38:12;16.50;70.20
41557;DHT22;27720;51.992;5.890;2023-04-15T11:40:45;16.60;69.80
41557;DHT22;27720;51.992;5.890;2023-04-15T11:43:18;16.50;69.50
41557;DHT22;27720;51.992;5.890;2023-04-15T11:46:05;16.60;69.70
41557;DHT22;27720;51.992;5.890;2023-04-15T11:52:16;17.00;67.70
41557;DHT22;27720;51.992;5.890;2023-04-15T11:54:46;16.90;67.70
41557;DHT22;27720;51.992;5.890;2023-04-15T11:57:15;17.00;66.20
41557;DHT22;27720;51.992;5.890;2023-04-15T11:59:54;17.30;66.90
41557;DHT22;27720;51.992;5.890;2023-04-15T12:02:20;17.60;66.70
41557;DHT22;27720;51.992;5.890;2023-04-15T12:05:03;17.70;66.20
41557;DHT22;27720;51.992;5.890;2023-04-15T12:07:29;17.80;66.00
41557;DHT22;27720;51.992;5.890;2023-04-15T12:09:57;17.70;65.00
41557;DHT22;27720;51.992;5.890;2023-04-15T12:14:52;17.50;64.70
41557;DHT22;27720;51.992;5.890;2023-04-15T12:17:19;17.50;65.20
41557;DHT22;27720;51.992;5.890;2023-04-15T12:19:56;17.60;65.70
41557;DHT22;27720;51.992;5.890;2023-04-15T12:22:26;17.90;65.30
41557;DHT22;27720;51.992;5.890;2023-04-15T12:24:57;18.00;64.70
41557;DHT22;27720;51.992;5.890;2023-04-15T12:27:27;18.20;64.60
41557;DHT22;27720;51.992;5.890;2023-04-15T12:30:05;18.20;63.90
41557;DHT22;27720;51.992;5.890;2023-04-15T12:32:43;18.30;63.80
41557;DHT22;27720;51.992;5.890;2023-04-15T12:35:31;18.40;63.00
41557;DHT22;27720;51.992;5.890;2023-04-15T12:37:57;18.50;63.60
41557;DHT22;27720;51.992;5.890;2023-04-15T12:40:23;18.60;63.00
41557;DHT22;27720;51.992;5.890;2023-04-15T12:42:50;18.80;63.00
41557;DHT22;27720;51.992;5.890;2023-04-15T12:45:16;18.80;62.90
41557;DHT22;27720;51.992;5.890;2023-04-15T12:47:45;18.70;62.30
41557;DHT22;27720;51.992;5.890;2023-04-15T12:50:13;18.50;62.60
41557;DHT22;27720;51.992;5.890;2023-04-15T12:52:44;18.40;63.20
41557;DHT22;27720;51.992;5.890;2023-04-15T12:55:10;18.30;63.40
41557;DHT22;27720;51.992;5.890;2023-04-15T12:57:36;18.10;63.40
41557;DHT22;27720;51.992;5.890;2023-04-15T13:00:04;18.00;63.70
41557;DHT22;27720;51.992;5.890;2023-04-15T13:02:33;17.90;63.60
41557;DHT22;27720;51.992;5.890;2023-04-15T13:04:58;17.70;63.40
41557;DHT22;27720;51.992;5.890;2023-04-15T13:07:28;17.60;63.60
41557;DHT22;27720;51.992;5.890;2023-04-15T13:09:54;17.50;64.10
41557;DHT22;27720;51.992;5.890;2023-04-15T13:12:20;17.70;64.50
41557;DHT22;27720;51.992;5.890;2023-04-15T13:14:45;17.70;64.30
41557;DHT22;27720;51.992;5.890;2023-04-15T13:17:11;17.70;63.90
41557;DHT22;27720;51.992;5.890;2023-04-15T13:19:37;17.70;64.20
41557;DHT22;27720;51.992;5.890;2023-04-15T13:22:03;17.70;64.10
41557;DHT22;27720;51.992;5.890;2023-04-15T13:24:29;17.60;63.90
41557;DHT22;27720;51.992;5.890;2023-04-15T13:26:55;17.50;64.00
41557;DHT22;27720;51.992;5.890;2023-04-15T13:29:23;17.40;63.80
41557;DHT22;27720;51.992;5.890;2023-04-15T13:31:49;17.20;64.10
41557;DHT22;27720;51.992;5.890;2023-04-15T13:34:15;17.00;64.40
41557;DHT22;27720;51.992;5.890;2023-04-15T13:36:40;16.90;64.80
41557;DHT22;27720;51.992;5.890;2023-04-15T13:39:06;16.90;64.90
41557;DHT22;27720;51.992;5.890;2023-04-15T13:41:32;16.80;65.20
41557;DHT22;27720;51.992;5.890;2023-04-15T13:43:58;16.90;65.40
41557;DHT22;27720;51.992;5.890;2023-04-15T13:46:24;17.00;65.50
41557;DHT22;27720;51.992;5.890;2023-04-15T13:48:50;17.40;65.30
41557;DHT22;27720;51.992;5.890;2023-04-15T13:51:16;17.50;64.80
41557;DHT22;27720;51.992;5.890;2023-04-15T13:53:42;17.50;64.70
41557;DHT22;27720;51.992;5.890;2023-04-15T13:56:08;17.40;64.90
41557;DHT22;27720;51.992;5.890;2023-04-15T13:58:34;17.20;64.80
41557;DHT22;27720;51.992;5.890;2023-04-15T14:01:00;17.20;65.30
